createdAt,value
2018-01-10T00:00:01.428Z,788.56
2018-01-10T00:00:05.565Z,788.55
2018-01-10T00:00:09.575Z,788.51
2018-01-10T00:00:13.596Z,788.54
2018-01-10T00:00:17.725Z,788.54
2018-01-10T00:00:22.069Z,788.51
2018-01-10T00:00:26.408Z,788.48
2018-01-10T00:00:30.434Z,788.49
2018-01-10T00:00:34.459Z,788.5
2018-01-10T00:00:38.593Z,788.48
2018-01-10T00:00:42.723Z,788.46
2018-01-10T00:00:47.070Z,788.46
2018-01-10T00:00:50.976Z,788.46
2018-01-10T00:00:55.235Z,788.44
2018-01-10T00:00:59.708Z,788.45
2018-01-10T00:01:04.324Z,788.44
2018-01-10T00:01:08.448Z,788.41
2018-01-10T00:01:12.746Z,788.44
2018-01-10T00:01:16.882Z,788.41
2018-01-10T00:01:20.995Z,788.43
2018-01-10T00:01:25.344Z,788.36
2018-01-10T00:01:29.261Z,788.35
2018-01-10T00:01:33.386Z,788.38
2018-01-10T00:01:37.620Z,788.4
2018-01-10T00:01:41.749Z,788.34
2018-01-10T00:01:46.011Z,788.36
2018-01-10T00:01:50.150Z,788.36
2018-01-10T00:01:54.388Z,788.33
2018-01-10T00:01:58.405Z,788.32
2018-01-10T00:02:02.732Z,788.3
2018-01-10T00:02:06.966Z,788.3
2018-01-10T00:02:11.103Z,788.31
2018-01-10T00:02:15.465Z,788.32
2018-01-10T00:02:19.606Z,788.24
2018-01-10T00:02:23.634Z,788.22
2018-01-10T00:02:27.866Z,788.25
2018-01-10T00:02:31.989Z,788.26
2018-01-10T00:02:36.334Z,788.25
2018-01-10T00:02:40.468Z,788.25
2018-01-10T00:02:44.703Z,788.24
2018-01-10T00:02:48.735Z,788.25
2018-01-10T00:02:52.964Z,788.21
2018-01-10T00:02:57.097Z,788.23
2018-01-10T00:03:01.419Z,788.22
2018-01-10T00:03:05.536Z,788.19
2018-01-10T00:03:09.781Z,788.19
2018-01-10T00:03:13.918Z,788.18
2018-01-10T00:03:18.261Z,788.18
2018-01-10T00:03:22.488Z,788.17
2018-01-10T00:03:26.734Z,788.16
2018-01-10T00:03:30.884Z,788.12
2018-01-10T00:03:34.797Z,788.12
2018-01-10T00:03:38.829Z,788.06
2018-01-10T00:03:42.849Z,788.08
2018-01-10T00:03:46.995Z,788.08
2018-01-10T00:03:51.223Z,788.12
2018-01-10T00:03:55.457Z,788.08
2018-01-10T00:03:59.600Z,788.1
2018-01-10T00:04:03.796Z,788.09
2018-01-10T00:04:07.825Z,788.05
2018-01-10T00:04:11.938Z,788.05
2018-01-10T00:04:15.954Z,788.06
2018-01-10T00:04:19.974Z,788.05
2018-01-10T00:04:23.903Z,788.03
2018-01-10T00:04:27.929Z,788.01
2018-01-10T00:04:31.949Z,788.01
2018-01-10T00:04:36.077Z,788
2018-01-10T00:04:40.214Z,787.99
2018-01-10T00:04:44.402Z,787.97
2018-01-10T00:04:48.537Z,787.97
2018-01-10T00:04:52.773Z,787.9
2018-01-10T00:04:57.003Z,787.91
2018-01-10T00:05:01.140Z,787.93
2018-01-10T00:05:05.281Z,787.88
2018-01-10T00:05:09.409Z,787.9
2018-01-10T00:05:13.667Z,787.88
2018-01-10T00:05:17.692Z,787.88
2018-01-10T00:05:21.842Z,787.87
2018-01-10T00:05:25.965Z,787.89
2018-01-10T00:05:30.003Z,787.87
2018-01-10T00:05:34.122Z,787.87
2018-01-10T00:05:38.249Z,787.86
2018-01-10T00:05:42.161Z,787.87
2018-01-10T00:05:46.400Z,787.85
2018-01-10T00:05:50.731Z,787.82
2018-01-10T00:05:54.967Z,787.81
2018-01-10T00:05:59.307Z,787.79
2018-01-10T00:06:03.465Z,787.81
2018-01-10T00:06:07.605Z,787.76
2018-01-10T00:06:11.851Z,787.78
2018-01-10T00:06:16.100Z,787.79
2018-01-10T00:06:20.387Z,787.72
2018-01-10T00:06:24.707Z,787.72
2018-01-10T00:06:29.039Z,787.71
2018-01-10T00:06:33.054Z,787.72
2018-01-10T00:06:37.302Z,787.67
2018-01-10T00:06:41.619Z,787.72
2018-01-10T00:06:45.759Z,787.68
2018-01-10T00:06:49.802Z,787.66
2018-01-10T00:06:53.829Z,787.68
2018-01-10T00:06:57.785Z,787.58
2018-01-10T00:07:02.534Z,787.62
2018-01-10T00:07:06.658Z,787.58
2018-01-10T00:07:10.804Z,787.65
2018-01-10T00:07:15.039Z,787.6
2018-01-10T00:07:19.281Z,787.59
2018-01-10T00:07:23.655Z,787.58
2018-01-10T00:07:27.829Z,787.58
2018-01-10T00:07:31.958Z,787.6
2018-01-10T00:07:35.986Z,787.59
2018-01-10T00:07:39.904Z,787.58
2018-01-10T00:07:44.037Z,787.53
2018-01-10T00:07:48.064Z,787.59
2018-01-10T00:07:52.306Z,787.53
2018-01-10T00:07:56.449Z,787.55
2018-01-10T00:08:00.603Z,787.55
2018-01-10T00:08:05.052Z,787.52
2018-01-10T00:08:09.198Z,787.54
2018-01-10T00:08:13.428Z,787.51
2018-01-10T00:08:17.398Z,787.52
2018-01-10T00:08:21.425Z,787.49
2018-01-10T00:08:25.552Z,787.52
2018-01-10T00:08:29.899Z,787.49
2018-01-10T00:08:34.030Z,787.49
2018-01-10T00:08:38.173Z,787.49
2018-01-10T00:08:42.523Z,787.49
2018-01-10T00:08:46.765Z,787.47
2018-01-10T00:08:51.118Z,787.48
2018-01-10T00:08:55.148Z,787.46
2018-01-10T00:08:59.063Z,787.48
2018-01-10T00:09:03.326Z,787.44
2018-01-10T00:09:07.579Z,787.46
2018-01-10T00:09:11.717Z,787.42
2018-01-10T00:09:15.738Z,787.44
2018-01-10T00:09:19.886Z,787.43
2018-01-10T00:09:23.800Z,787.44
2018-01-10T00:09:28.042Z,787.42
2018-01-10T00:09:32.181Z,787.45
2018-01-10T00:09:36.289Z,787.42
2018-01-10T00:09:40.422Z,787.42
2018-01-10T00:09:44.644Z,787.42
2018-01-10T00:09:48.819Z,787.42
2018-01-10T00:09:53.063Z,787.4
2018-01-10T00:09:57.191Z,787.37
2018-01-10T00:10:01.216Z,787.37
2018-01-10T00:10:05.561Z,787.4
2018-01-10T00:10:09.684Z,787.38
2018-01-10T00:10:13.941Z,787.3
2018-01-10T00:10:18.067Z,787.31
2018-01-10T00:10:22.206Z,787.34
2018-01-10T00:10:26.329Z,787.36
2018-01-10T00:10:30.339Z,787.37
2018-01-10T00:10:34.372Z,787.35
2018-01-10T00:10:38.615Z,787.39
2018-01-10T00:10:42.534Z,787.35
2018-01-10T00:10:46.778Z,787.37
2018-01-10T00:10:50.699Z,787.34
2018-01-10T00:10:54.730Z,787.34
2018-01-10T00:10:59.038Z,787.32
2018-01-10T00:11:03.225Z,787.28
2018-01-10T00:11:07.363Z,787.31
2018-01-10T00:11:11.385Z,787.32
2018-01-10T00:11:15.530Z,787.31
2018-01-10T00:11:19.772Z,787.31
2018-01-10T00:11:23.899Z,787.31
2018-01-10T00:11:27.717Z,787.28
2018-01-10T00:11:31.627Z,787.28
2018-01-10T00:11:35.546Z,787.32
2018-01-10T00:11:39.783Z,787.29
2018-01-10T00:11:44.033Z,787.26
2018-01-10T00:11:48.180Z,787.27
2018-01-10T00:11:52.528Z,787.26
2018-01-10T00:11:56.753Z,787.28
2018-01-10T00:12:00.899Z,787.25
2018-01-10T00:12:05.142Z,787.27
2018-01-10T00:12:09.170Z,787.28
2018-01-10T00:12:13.388Z,787.28
2018-01-10T00:12:17.399Z,787.24
2018-01-10T00:12:21.532Z,787.23
2018-01-10T00:12:25.754Z,787.23
2018-01-10T00:12:30.089Z,787.22
2018-01-10T00:12:34.445Z,787.26
2018-01-10T00:12:38.471Z,787.23
2018-01-10T00:12:42.856Z,787.2
2018-01-10T00:12:46.882Z,787.22
2018-01-10T00:12:50.912Z,787.21
2018-01-10T00:12:55.167Z,787.2
2018-01-10T00:12:59.456Z,787.18
2018-01-10T00:13:03.715Z,787.17
2018-01-10T00:13:07.948Z,787.18
2018-01-10T00:13:12.186Z,787.19
2018-01-10T00:13:16.434Z,787.17
2018-01-10T00:13:20.465Z,787.18
2018-01-10T00:13:24.700Z,787.17
2018-01-10T00:13:28.925Z,787.16
2018-01-10T00:13:32.858Z,787.17
2018-01-10T00:13:36.897Z,787.15
2018-01-10T00:13:41.126Z,787.15
2018-01-10T00:13:45.372Z,787.19
2018-01-10T00:13:49.539Z,787.14
2018-01-10T00:13:53.642Z,787.16
2018-01-10T00:13:57.987Z,787.14
2018-01-10T00:14:02.320Z,787.17
2018-01-10T00:14:06.447Z,787.13
2018-01-10T00:14:10.794Z,787.13
2018-01-10T00:14:15.029Z,787.09
2018-01-10T00:14:19.166Z,787.04
2018-01-10T00:14:23.188Z,787.06
2018-01-10T00:14:27.217Z,787.06
2018-01-10T00:14:31.334Z,787.09
2018-01-10T00:14:35.573Z,787.07
2018-01-10T00:14:39.917Z,787.08
2018-01-10T00:14:44.144Z,787.03
2018-01-10T00:14:48.391Z,787.03
2018-01-10T00:14:52.736Z,787.04
2018-01-10T00:14:56.862Z,787.03
2018-01-10T00:15:00.792Z,787.02
2018-01-10T00:15:05.027Z,787.02
2018-01-10T00:15:09.064Z,786.96
2018-01-10T00:15:13.400Z,786.97
2018-01-10T00:15:17.537Z,786.96
2018-01-10T00:15:21.675Z,787.03
2018-01-10T00:15:25.921Z,787.01
2018-01-10T00:15:29.851Z,786.96
2018-01-10T00:15:33.886Z,787.01
2018-01-10T00:15:37.913Z,786.98
2018-01-10T00:15:41.943Z,786.96
2018-01-10T00:15:46.076Z,786.97
2018-01-10T00:15:49.999Z,786.93
2018-01-10T00:15:54.224Z,786.96
2018-01-10T00:15:58.443Z,786.94
2018-01-10T00:16:03.018Z,786.96
2018-01-10T00:16:07.168Z,786.92
2018-01-10T00:16:11.090Z,786.96
2018-01-10T00:16:15.345Z,786.92
2018-01-10T00:16:19.483Z,786.94
2018-01-10T00:16:23.609Z,786.93
2018-01-10T00:16:27.844Z,786.89
2018-01-10T00:16:31.862Z,786.9
2018-01-10T00:16:35.770Z,786.94
2018-01-10T00:16:40.016Z,786.89
2018-01-10T00:16:44.034Z,786.89
2018-01-10T00:16:48.276Z,786.88
2018-01-10T00:16:52.508Z,786.9
2018-01-10T00:16:56.736Z,786.89
2018-01-10T00:17:00.874Z,786.9
2018-01-10T00:17:04.993Z,786.86
2018-01-10T00:17:09.119Z,786.87
2018-01-10T00:17:13.368Z,786.85
2018-01-10T00:17:17.388Z,786.86
2018-01-10T00:17:21.623Z,786.86
2018-01-10T00:17:25.960Z,786.84
2018-01-10T00:17:30.079Z,786.82
2018-01-10T00:17:34.000Z,786.85
2018-01-10T00:17:38.132Z,786.81
2018-01-10T00:17:42.269Z,786.86
2018-01-10T00:17:46.594Z,786.82
2018-01-10T00:17:50.631Z,786.82
2018-01-10T00:17:54.982Z,786.86
2018-01-10T00:17:59.128Z,786.82
2018-01-10T00:18:03.054Z,786.83
2018-01-10T00:18:07.191Z,786.77
2018-01-10T00:18:11.438Z,786.79
2018-01-10T00:18:15.612Z,786.78
2018-01-10T00:18:19.851Z,786.78
2018-01-10T00:18:24.187Z,786.8
2018-01-10T00:18:28.213Z,786.79
2018-01-10T00:18:32.241Z,786.79
2018-01-10T00:18:36.372Z,786.79
2018-01-10T00:18:40.612Z,786.77
2018-01-10T00:18:44.864Z,786.77
2018-01-10T00:18:49.003Z,786.73
2018-01-10T00:18:53.017Z,786.74
2018-01-10T00:18:57.055Z,786.79
2018-01-10T00:19:01.192Z,786.73
2018-01-10T00:19:05.586Z,786.71
2018-01-10T00:19:09.713Z,786.74
2018-01-10T00:19:13.741Z,786.75
2018-01-10T00:19:17.750Z,786.75
2018-01-10T00:19:21.946Z,786.73
2018-01-10T00:19:25.982Z,786.74
2018-01-10T00:19:30.108Z,786.75
2018-01-10T00:19:34.041Z,786.72
2018-01-10T00:19:38.063Z,786.72
2018-01-10T00:19:42.293Z,786.72
2018-01-10T00:19:46.337Z,786.74
2018-01-10T00:19:50.462Z,786.71
2018-01-10T00:19:54.390Z,786.72
2018-01-10T00:19:58.647Z,786.76
2018-01-10T00:20:02.890Z,786.71
2018-01-10T00:20:06.918Z,786.68
2018-01-10T00:20:11.265Z,786.73
2018-01-10T00:20:15.380Z,786.7
2018-01-10T00:20:19.614Z,786.66
2018-01-10T00:20:23.742Z,786.69
2018-01-10T00:20:27.768Z,786.67
2018-01-10T00:20:31.795Z,786.64
2018-01-10T00:20:35.705Z,786.68
2018-01-10T00:20:39.941Z,786.63
2018-01-10T00:20:43.964Z,786.67
2018-01-10T00:20:47.983Z,786.64
2018-01-10T00:20:52.002Z,786.64
2018-01-10T00:20:56.235Z,786.65
2018-01-10T00:21:00.476Z,786.62
2018-01-10T00:21:04.554Z,786.62
2018-01-10T00:21:08.678Z,786.59
2018-01-10T00:21:12.906Z,786.6
2018-01-10T00:21:17.143Z,786.62
2018-01-10T00:21:20.865Z,786.6
2018-01-10T00:21:25.096Z,786.62
2018-01-10T00:21:29.334Z,786.57
2018-01-10T00:21:33.361Z,786.57
2018-01-10T00:21:37.162Z,786.54
2018-01-10T00:21:41.510Z,786.56
2018-01-10T00:21:45.645Z,786.57
2018-01-10T00:21:49.877Z,786.56
2018-01-10T00:21:53.804Z,786.55
2018-01-10T00:21:57.721Z,786.55
2018-01-10T00:22:01.744Z,786.57
2018-01-10T00:22:05.685Z,786.51
2018-01-10T00:22:09.706Z,786.55
2018-01-10T00:22:14.287Z,786.49
2018-01-10T00:22:18.451Z,786.5
2018-01-10T00:22:22.466Z,786.49
2018-01-10T00:22:26.607Z,786.51
2018-01-10T00:22:30.735Z,786.48
2018-01-10T00:22:34.422Z,786.47
2018-01-10T00:22:38.557Z,786.47
2018-01-10T00:22:42.909Z,786.49
2018-01-10T00:22:47.050Z,786.44
2018-01-10T00:22:51.180Z,786.46
2018-01-10T00:22:55.193Z,786.41
2018-01-10T00:22:59.313Z,786.41
2018-01-10T00:23:03.333Z,786.46
2018-01-10T00:23:07.364Z,786.42
2018-01-10T00:23:11.489Z,786.41
2018-01-10T00:23:15.409Z,786.4
2018-01-10T00:23:19.859Z,786.39
2018-01-10T00:23:24.036Z,786.39
2018-01-10T00:23:28.179Z,786.34
2018-01-10T00:23:32.330Z,786.36
2018-01-10T00:23:36.248Z,786.36
2018-01-10T00:23:40.070Z,786.32
2018-01-10T00:23:44.297Z,786.34
2018-01-10T00:23:48.438Z,786.31
2018-01-10T00:23:52.571Z,786.33
2018-01-10T00:23:56.580Z,786.33
2018-01-10T00:24:00.859Z,786.31
2018-01-10T00:24:05.189Z,786.29
2018-01-10T00:24:08.992Z,786.26
2018-01-10T00:24:13.121Z,786.27
2018-01-10T00:24:17.252Z,786.25
2018-01-10T00:24:21.494Z,786.26
2018-01-10T00:24:25.519Z,786.25
2018-01-10T00:24:29.741Z,786.27
2018-01-10T00:24:33.976Z,786.24
2018-01-10T00:24:38.225Z,786.23
2018-01-10T00:24:42.279Z,786.21
2018-01-10T00:24:46.314Z,786.21
2018-01-10T00:24:50.481Z,786.22
2018-01-10T00:24:54.727Z,786.22
2018-01-10T00:24:59.086Z,786.15
2018-01-10T00:25:03.423Z,786.17
2018-01-10T00:25:07.351Z,786.13
2018-01-10T00:25:11.464Z,786.17
2018-01-10T00:25:15.814Z,786.15
2018-01-10T00:25:19.732Z,786.15
2018-01-10T00:25:23.871Z,786.13
2018-01-10T00:25:27.887Z,786.1
2018-01-10T00:25:32.126Z,786.12
2018-01-10T00:25:36.058Z,786.1
2018-01-10T00:25:40.186Z,786.12
2018-01-10T00:25:44.231Z,786.09
2018-01-10T00:25:48.359Z,786.08
2018-01-10T00:25:52.705Z,786.05
2018-01-10T00:25:56.826Z,786.07
2018-01-10T00:26:00.861Z,786.07
2018-01-10T00:26:04.992Z,786.07
2018-01-10T00:26:09.125Z,786.07
2018-01-10T00:26:13.059Z,786.06
2018-01-10T00:26:17.301Z,786.06
2018-01-10T00:26:21.643Z,786.03
2018-01-10T00:26:25.886Z,786.01
2018-01-10T00:26:29.920Z,785.98
2018-01-10T00:26:33.934Z,786.01
2018-01-10T00:26:38.189Z,785.99
2018-01-10T00:26:42.326Z,785.99
2018-01-10T00:26:46.552Z,785.96
2018-01-10T00:26:50.781Z,785.96
2018-01-10T00:26:55.013Z,785.95
2018-01-10T00:26:59.248Z,785.95
2018-01-10T00:27:03.425Z,785.94
2018-01-10T00:27:07.447Z,785.95
2018-01-10T00:27:11.799Z,785.9
2018-01-10T00:27:16.067Z,785.89
2018-01-10T00:27:20.205Z,785.91
2018-01-10T00:27:24.450Z,785.9
2018-01-10T00:27:28.477Z,785.87
2018-01-10T00:27:32.489Z,785.87
2018-01-10T00:27:36.508Z,785.86
2018-01-10T00:27:40.632Z,785.86
2018-01-10T00:27:44.877Z,785.86
2018-01-10T00:27:48.909Z,785.82
2018-01-10T00:27:53.038Z,785.86
2018-01-10T00:27:57.160Z,785.82
2018-01-10T00:28:01.398Z,785.87
2018-01-10T00:28:05.725Z,785.82
2018-01-10T00:28:09.757Z,785.83
2018-01-10T00:28:13.905Z,785.83
2018-01-10T00:28:18.278Z,785.81
2018-01-10T00:28:22.507Z,785.79
2018-01-10T00:28:26.759Z,785.82
2018-01-10T00:28:30.882Z,785.8
2018-01-10T00:28:34.808Z,785.75
2018-01-10T00:28:39.141Z,785.74
2018-01-10T00:28:43.504Z,785.76
2018-01-10T00:28:47.753Z,785.8
2018-01-10T00:28:51.900Z,785.76
2018-01-10T00:28:55.913Z,785.76
2018-01-10T00:29:00.287Z,785.73
2018-01-10T00:29:04.268Z,785.75
2018-01-10T00:29:08.287Z,785.76
2018-01-10T00:29:12.427Z,785.74
2018-01-10T00:29:16.571Z,785.74
2018-01-10T00:29:20.595Z,785.72
2018-01-10T00:29:24.742Z,785.66
2018-01-10T00:29:28.887Z,785.67
2018-01-10T00:29:33.105Z,785.69
2018-01-10T00:29:37.229Z,785.68
2018-01-10T00:29:41.575Z,785.66
2018-01-10T00:29:45.809Z,785.66
2018-01-10T00:29:50.148Z,785.68
2018-01-10T00:29:54.166Z,785.65
2018-01-10T00:29:58.286Z,785.62
2018-01-10T00:30:02.612Z,785.63
2018-01-10T00:30:06.853Z,785.65
2018-01-10T00:30:11.095Z,785.62
2018-01-10T00:30:15.415Z,785.62
2018-01-10T00:30:19.854Z,785.65
2018-01-10T00:30:24.089Z,785.55
2018-01-10T00:30:28.431Z,785.59
2018-01-10T00:30:32.459Z,785.59
2018-01-10T00:30:36.381Z,785.57
2018-01-10T00:30:40.498Z,785.56
2018-01-10T00:30:44.625Z,785.54
2018-01-10T00:30:48.641Z,785.58
2018-01-10T00:30:52.781Z,785.56
2018-01-10T00:30:56.919Z,785.55
2018-01-10T00:31:01.037Z,785.55
2018-01-10T00:31:05.430Z,785.53
2018-01-10T00:31:09.561Z,785.51
2018-01-10T00:31:13.691Z,785.5
2018-01-10T00:31:17.828Z,785.52
2018-01-10T00:31:21.963Z,785.51
2018-01-10T00:31:26.212Z,785.52
2018-01-10T00:31:30.513Z,785.51
2018-01-10T00:31:34.318Z,785.51
2018-01-10T00:31:38.334Z,785.5
2018-01-10T00:31:42.377Z,785.5
2018-01-10T00:31:46.511Z,785.49
2018-01-10T00:31:50.654Z,785.54
2018-01-10T00:31:54.993Z,785.46
2018-01-10T00:31:59.228Z,785.47
2018-01-10T00:32:03.245Z,785.47
2018-01-10T00:32:07.147Z,785.44
2018-01-10T00:32:11.390Z,785.45
2018-01-10T00:32:15.632Z,785.41
2018-01-10T00:32:19.771Z,785.41
2018-01-10T00:32:24.016Z,785.42
2018-01-10T00:32:28.144Z,785.41
2018-01-10T00:32:32.176Z,785.39
2018-01-10T00:32:36.208Z,785.41
2018-01-10T00:32:40.230Z,785.42
2018-01-10T00:32:44.507Z,785.38
2018-01-10T00:32:48.760Z,785.37
2018-01-10T00:32:52.987Z,785.35
2018-01-10T00:32:57.118Z,785.37
2018-01-10T00:33:01.359Z,785.32
2018-01-10T00:33:05.500Z,785.37
2018-01-10T00:33:09.635Z,785.35
2018-01-10T00:33:13.883Z,785.33
2018-01-10T00:33:18.114Z,785.32
2018-01-10T00:33:22.261Z,785.29
2018-01-10T00:33:26.503Z,785.28
2018-01-10T00:33:30.656Z,785.27
2018-01-10T00:33:34.576Z,785.25
2018-01-10T00:33:38.809Z,785.27
2018-01-10T00:33:43.047Z,785.27
2018-01-10T00:33:47.293Z,785.27
2018-01-10T00:33:51.532Z,785.27
2018-01-10T00:33:55.727Z,785.24
2018-01-10T00:33:59.633Z,785.27
2018-01-10T00:34:03.670Z,785.22
2018-01-10T00:34:07.732Z,785.27
2018-01-10T00:34:12.060Z,785.24
2018-01-10T00:34:16.443Z,785.23
2018-01-10T00:34:20.473Z,785.25
2018-01-10T00:34:24.603Z,785.24
2018-01-10T00:34:28.635Z,785.23
2018-01-10T00:34:32.764Z,785.23
2018-01-10T00:34:36.886Z,785.24
2018-01-10T00:34:41.125Z,785.2
2018-01-10T00:34:45.152Z,785.23
2018-01-10T00:34:49.491Z,785.19
2018-01-10T00:34:53.832Z,785.22
2018-01-10T00:34:57.749Z,785.18
2018-01-10T00:35:01.879Z,785.18
2018-01-10T00:35:06.026Z,785.18
2018-01-10T00:35:09.953Z,785.16
2018-01-10T00:35:14.087Z,785.2
2018-01-10T00:35:18.093Z,785.21
2018-01-10T00:35:22.336Z,785.15
2018-01-10T00:35:26.562Z,785.15
2018-01-10T00:35:30.919Z,785.14
2018-01-10T00:35:34.948Z,785.17
2018-01-10T00:35:39.198Z,785.16
2018-01-10T00:35:43.228Z,785.15
2018-01-10T00:35:47.474Z,785.13
2018-01-10T00:35:51.817Z,785.12
2018-01-10T00:35:56.054Z,785.14
2018-01-10T00:36:00.417Z,785.11
2018-01-10T00:36:04.444Z,785.14
2018-01-10T00:36:08.567Z,785.12
2018-01-10T00:36:12.816Z,785.11
2018-01-10T00:36:16.847Z,785.12
2018-01-10T00:36:20.776Z,785.11
2018-01-10T00:36:24.912Z,785.1
2018-01-10T00:36:28.842Z,785.08
2018-01-10T00:36:32.972Z,785.09
2018-01-10T00:36:37.205Z,785.08
2018-01-10T00:36:41.331Z,785.06
2018-01-10T00:36:45.275Z,785.1
2018-01-10T00:36:49.418Z,785.05
2018-01-10T00:36:53.655Z,785.07
2018-01-10T00:36:57.487Z,785.08
2018-01-10T00:37:01.560Z,785.06
2018-01-10T00:37:06.136Z,785.05
2018-01-10T00:37:10.274Z,785.03
2018-01-10T00:37:14.300Z,785.06
2018-01-10T00:37:18.436Z,785.02
2018-01-10T00:37:22.573Z,785.03
2018-01-10T00:37:26.907Z,785.01
2018-01-10T00:37:31.137Z,785.01
2018-01-10T00:37:35.256Z,785.03
2018-01-10T00:37:39.492Z,785.01
2018-01-10T00:37:43.624Z,785.01
2018-01-10T00:37:47.658Z,785.01
2018-01-10T00:37:52.007Z,785
2018-01-10T00:37:56.234Z,785
2018-01-10T00:38:00.486Z,784.96
2018-01-10T00:38:04.609Z,784.98
2018-01-10T00:38:08.635Z,784.92
2018-01-10T00:38:12.682Z,784.93
2018-01-10T00:38:16.823Z,784.93
2018-01-10T00:38:20.976Z,784.96
2018-01-10T00:38:25.190Z,784.99
2018-01-10T00:38:29.213Z,784.97
2018-01-10T00:38:33.265Z,784.96
2018-01-10T00:38:37.488Z,784.95
2018-01-10T00:38:41.640Z,784.96
2018-01-10T00:38:45.775Z,784.94
2018-01-10T00:38:49.902Z,784.93
2018-01-10T00:38:54.030Z,784.93
2018-01-10T00:38:58.157Z,784.94
2018-01-10T00:39:02.287Z,784.93
2018-01-10T00:39:06.321Z,784.92
2018-01-10T00:39:10.459Z,784.94
2018-01-10T00:39:14.585Z,784.94
2018-01-10T00:39:18.918Z,784.87
2018-01-10T00:39:23.075Z,784.93
2018-01-10T00:39:27.311Z,784.91
2018-01-10T00:39:31.333Z,784.92
2018-01-10T00:39:35.253Z,784.93
2018-01-10T00:39:39.580Z,784.91
2018-01-10T00:39:43.984Z,784.9
2018-01-10T00:39:48.106Z,784.9
2018-01-10T00:39:52.341Z,784.88
2018-01-10T00:39:56.660Z,784.85
2018-01-10T00:40:00.897Z,784.88
2018-01-10T00:40:05.377Z,784.88
2018-01-10T00:40:09.412Z,784.85
2018-01-10T00:40:13.225Z,784.86
2018-01-10T00:40:17.444Z,784.91
2018-01-10T00:40:21.456Z,784.87
2018-01-10T00:40:25.794Z,784.85
2018-01-10T00:40:29.817Z,784.82
2018-01-10T00:40:33.930Z,784.81
2018-01-10T00:40:37.954Z,784.84
2018-01-10T00:40:41.988Z,784.85
2018-01-10T00:40:45.916Z,784.84
2018-01-10T00:40:50.282Z,784.82
2018-01-10T00:40:54.200Z,784.84
2018-01-10T00:40:58.442Z,784.84
2018-01-10T00:41:02.890Z,784.77
2018-01-10T00:41:07.028Z,784.78
2018-01-10T00:41:11.365Z,784.82
2018-01-10T00:41:15.390Z,784.83
2018-01-10T00:41:19.511Z,784.79
2018-01-10T00:41:23.774Z,784.81
2018-01-10T00:41:27.998Z,784.82
2018-01-10T00:41:31.930Z,784.82
2018-01-10T00:41:35.953Z,784.8
2018-01-10T00:41:40.217Z,784.77
2018-01-10T00:41:44.557Z,784.79
2018-01-10T00:41:48.773Z,784.78
2018-01-10T00:41:52.906Z,784.79
2018-01-10T00:41:57.250Z,784.71
2018-01-10T00:42:01.814Z,784.75
2018-01-10T00:42:05.968Z,784.75
2018-01-10T00:42:10.308Z,784.77
2018-01-10T00:42:14.641Z,784.73
2018-01-10T00:42:18.576Z,784.76
2018-01-10T00:42:22.610Z,784.78
2018-01-10T00:42:26.844Z,784.76
2018-01-10T00:42:30.772Z,784.74
2018-01-10T00:42:34.800Z,784.74
2018-01-10T00:42:38.816Z,784.74
2018-01-10T00:42:43.171Z,784.75
2018-01-10T00:42:47.285Z,784.73
2018-01-10T00:42:51.431Z,784.72
2018-01-10T00:42:55.671Z,784.66
2018-01-10T00:42:59.817Z,784.66
2018-01-10T00:43:04.071Z,784.65
2018-01-10T00:43:08.100Z,784.66
2018-01-10T00:43:12.340Z,784.68
2018-01-10T00:43:16.372Z,784.68
2018-01-10T00:43:20.686Z,784.67
2018-01-10T00:43:24.915Z,784.68
2018-01-10T00:43:29.139Z,784.62
2018-01-10T00:43:33.270Z,784.63
2018-01-10T00:43:37.297Z,784.67
2018-01-10T00:43:41.435Z,784.67
2018-01-10T00:43:45.656Z,784.68
2018-01-10T00:43:49.590Z,784.66
2018-01-10T00:43:53.640Z,784.64
2018-01-10T00:43:57.892Z,784.68
2018-01-10T00:44:02.022Z,784.68
2018-01-10T00:44:06.048Z,784.65
2018-01-10T00:44:09.857Z,784.63
2018-01-10T00:44:13.978Z,784.61
2018-01-10T00:44:18.097Z,784.61
2018-01-10T00:44:22.259Z,784.6
2018-01-10T00:44:26.385Z,784.61
2018-01-10T00:44:30.516Z,784.6
2018-01-10T00:44:34.328Z,784.62
2018-01-10T00:44:38.471Z,784.6
2018-01-10T00:44:42.497Z,784.61
2018-01-10T00:44:46.646Z,784.66
2018-01-10T00:44:50.757Z,784.65
2018-01-10T00:44:54.798Z,784.65
2018-01-10T00:44:58.967Z,784.66
2018-01-10T00:45:03.086Z,784.67
2018-01-10T00:45:07.325Z,784.64
2018-01-10T00:45:11.462Z,784.66
2018-01-10T00:45:15.569Z,784.63
2018-01-10T00:45:19.797Z,784.63
2018-01-10T00:45:23.930Z,784.64
2018-01-10T00:45:28.156Z,784.64
2018-01-10T00:45:32.293Z,784.64
2018-01-10T00:45:36.214Z,784.66
2018-01-10T00:45:40.437Z,784.63
2018-01-10T00:45:44.469Z,784.63
2018-01-10T00:45:48.814Z,784.66
2018-01-10T00:45:52.938Z,784.65
2018-01-10T00:45:57.166Z,784.63
2018-01-10T00:46:01.420Z,784.63
2018-01-10T00:46:05.551Z,784.67
2018-01-10T00:46:09.593Z,784.64
2018-01-10T00:46:13.933Z,784.67
2018-01-10T00:46:18.060Z,784.65
2018-01-10T00:46:22.279Z,784.69
2018-01-10T00:46:26.205Z,784.65
2018-01-10T00:46:30.441Z,784.64
2018-01-10T00:46:34.563Z,784.65
2018-01-10T00:46:38.809Z,784.67
2018-01-10T00:46:43.158Z,784.64
2018-01-10T00:46:47.300Z,784.7
2018-01-10T00:46:51.333Z,784.67
2018-01-10T00:46:55.452Z,784.69
2018-01-10T00:46:59.429Z,784.67
2018-01-10T00:47:04.007Z,784.67
2018-01-10T00:47:08.245Z,784.68
2018-01-10T00:47:12.173Z,784.66
2018-01-10T00:47:16.310Z,784.68
2018-01-10T00:47:20.552Z,784.69
2018-01-10T00:47:24.792Z,784.65
2018-01-10T00:47:29.024Z,784.66
2018-01-10T00:47:33.372Z,784.68
2018-01-10T00:47:37.499Z,784.68
2018-01-10T00:47:41.729Z,784.71
2018-01-10T00:47:45.983Z,784.7
2018-01-10T00:47:50.323Z,784.71
2018-01-10T00:47:54.337Z,784.71
2018-01-10T00:47:58.680Z,784.69
2018-01-10T00:48:03.007Z,784.71
2018-01-10T00:48:07.237Z,784.74
2018-01-10T00:48:11.579Z,784.71
2018-01-10T00:48:15.804Z,784.72
2018-01-10T00:48:19.858Z,784.74
2018-01-10T00:48:24.002Z,784.74
2018-01-10T00:48:28.148Z,784.71
2018-01-10T00:48:32.163Z,784.72
2018-01-10T00:48:36.083Z,784.74
2018-01-10T00:48:40.408Z,784.78
2018-01-10T00:48:44.624Z,784.78
2018-01-10T00:48:48.639Z,784.77
2018-01-10T00:48:52.882Z,784.72
2018-01-10T00:48:56.997Z,784.73
2018-01-10T00:49:01.147Z,784.71
2018-01-10T00:49:05.534Z,784.8
2018-01-10T00:49:09.540Z,784.79
2018-01-10T00:49:13.891Z,784.79
2018-01-10T00:49:18.233Z,784.79
2018-01-10T00:49:22.371Z,784.81
2018-01-10T00:49:26.498Z,784.8
2018-01-10T00:49:30.727Z,784.84
2018-01-10T00:49:34.850Z,784.82
2018-01-10T00:49:38.973Z,784.83
2018-01-10T00:49:43.112Z,784.82
2018-01-10T00:49:47.467Z,784.79
2018-01-10T00:49:51.383Z,784.82
2018-01-10T00:49:55.498Z,784.87
2018-01-10T00:49:59.515Z,784.87
2018-01-10T00:50:03.666Z,784.87
2018-01-10T00:50:07.586Z,784.81
2018-01-10T00:50:11.928Z,784.86
2018-01-10T00:50:16.264Z,784.86
2018-01-10T00:50:20.498Z,784.88
2018-01-10T00:50:24.620Z,784.9
2018-01-10T00:50:28.649Z,784.89
2018-01-10T00:50:32.897Z,784.9
2018-01-10T00:50:37.030Z,784.91
2018-01-10T00:50:41.166Z,784.89
2018-01-10T00:50:45.403Z,784.91
2018-01-10T00:50:49.634Z,784.94
2018-01-10T00:50:53.855Z,784.91
2018-01-10T00:50:57.978Z,784.94
2018-01-10T00:51:02.520Z,784.95
2018-01-10T00:51:06.763Z,784.95
2018-01-10T00:51:11.002Z,784.94
2018-01-10T00:51:15.245Z,784.93
2018-01-10T00:51:19.406Z,784.92
2018-01-10T00:51:23.425Z,784.94
2018-01-10T00:51:27.669Z,784.96
2018-01-10T00:51:31.906Z,784.96
2018-01-10T00:51:36.032Z,784.98
2018-01-10T00:51:40.364Z,784.97
2018-01-10T00:51:44.608Z,784.97
2018-01-10T00:51:48.640Z,784.98
2018-01-10T00:51:52.782Z,785.01
2018-01-10T00:51:57.012Z,785.02